Time;durP1;ratioP1;P1;durP2;ratioP2;P2;SDS_P1;SDS_P2;PMS_P1;PMS_P2;Temp;Humidity;BMP_temperature;BMP_pressure;BME280_temperature;BME280_humidity;BME280_pressure;Samples;Min_cycle;Max_cycle;Signal;HPM_P1;HPM_P2
2022/08/03 00:00:58;;;;;;;4.57;1.20;;;21.90;78.30;;;;;;2020122;29;20425;-84
2022/08/03 00:02:00;;;;;;;4.40;1.10;;;21.90;78.10;;;;;;2008434;29;20074;-84
2022/08/03 00:03:01;;;;;;;4.03;1.15;;;21.90;78.30;;;;;;2020406;29;20318;-84
2022/08/03 00:04:03;;;;;;;4.10;1.10;;;21.90;78.20;;;;;;2012647;29;20046;-84
2022/08/03 00:05:04;;;;;;;;;;;21.90;78.30;;;;;;2004649;29;20045;-84
2022/08/03 00:06:04;;;;;;;3.53;1.40;;;21.90;78.30;;;;;;2004204;29;20003;-84
2022/08/03 00:07:05;;;;;;;6.03;1.07;;;21.90;78.20;;;;;;2008434;29;20124;-84
2022/08/03 00:08:06;;;;;;;7.90;1.90;;;21.90;78.20;;;;;;2004749;29;20358;-84
2022/08/03 00:09:07;;;;;;;4.90;1.77;;;21.90;78.00;;;;;;1995934;29;20034;-84
2022/08/03 00:10:08;;;;;;;7.00;1.20;;;21.90;78.20;;;;;;2004924;29;20074;-84
2022/08/03 00:11:09;;;;;;;3.13;1.45;;;21.90;78.30;;;;;;2012608;29;20041;-84
2022/08/03 00:12:10;;;;;;;6.73;1.10;;;21.90;78.30;;;;;;2012456;29;20022;-85
2022/08/03 00:13:12;;;;;;;4.93;1.30;;;21.90;78.30;;;;;;2019038;29;20037;-85
2022/08/03 00:14:12;;;;;;;8.57;1.55;;;21.90;78.20;;;;;;2020208;29;20461;-84
2022/08/03 00:15:13;;;;;;;6.00;1.43;;;21.90;78.30;;;;;;2012006;29;20033;-84
2022/08/03 00:16:14;;;;;;;2.00;1.37;;;21.90;78.50;;;;;;2004971;29;20048;-85
2022/08/03 00:17:15;;;;;;;7.03;1.90;;;21.90;78.50;;;;;;2012188;29;20242;-84
2022/08/03 00:18:16;;;;;;;7.43;1.33;;;21.90;78.50;;;;;;2012013;29;20072;-84
2022/08/03 00:19:17;;;;;;;6.80;1.40;;;21.90;78.30;;;;;;2015450;29;20515;-84
2022/08/03 00:20:18;;;;;;;8.73;1.40;;;21.90;78.30;;;;;;2011831;29;20113;-84
2022/08/03 00:21:18;;;;;;;5.27;1.40;;;21.80;78.30;;;;;;2012386;29;20128;-84
2022/08/03 00:22:19;;;;;;;7.53;1.53;;;21.90;78.60;;;;;;2011057;29;20057;-84
2022/08/03 00:23:20;;;;;;;7.23;1.30;;;21.90;78.50;;;;;;2004732;29;20054;-86
2022/08/03 00:24:21;;;;;;;4.97;1.07;;;21.80;78.30;;;;;;2017867;29;20044;-86
2022/08/03 00:25:22;;;;;;;4.67;1.53;;;21.80;78.40;;;;;;2012539;29;20084;-85
2022/08/03 00:26:22;;;;;;;3.60;1.00;;;21.80;78.50;;;;;;2003819;29;20033;-85
2022/08/03 00:27:23;;;;;;;6.13;1.40;;;21.80;78.50;;;;;;2002389;29;20042;-85
2022/08/03 00:28:24;;;;;;;5.20;1.37;;;21.80;78.30;;;;;;2005019;29;20026;-85
2022/08/03 00:29:25;;;;;;;3.07;1.13;;;21.80;78.50;;;;;;2015097;29;20065;-85
2022/08/03 00:30:25;;;;;;;5.50;1.17;;;21.90;78.40;;;;;;2015829;29;20033;-84
2022/08/03 00:31:26;;;;;;;1.23;0.63;;;21.90;78.40;;;;;;2020125;29;20044;-84
2022/08/03 00:32:27;;;;;;;4.63;1.50;;;21.80;78.30;;;;;;2011585;29;20038;-85
2022/08/03 00:33:28;;;;;;;5.37;1.53;;;21.80;78.40;;;;;;2004834;29;20061;-85
2022/08/03 00:34:30;;;;;;;5.40;1.27;;;21.80;78.50;;;;;;2004744;29;20026;-85
2022/08/03 00:35:31;;;;;;;4.97;1.10;;;21.80;78.50;;;;;;1997337;29;20041;-85
2022/08/03 00:36:32;;;;;;;5.53;0.80;;;21.80;78.50;;;;;;2012079;29;20035;-84
2022/08/03 00:37:33;;;;;;;13.23;1.70;;;21.80;78.40;;;;;;2007676;29;20034;-84
2022/08/03 00:38:33;;;;;;;2.03;1.00;;;21.80;78.40;;;;;;2020060;29;20288;-83
2022/08/03 00:39:34;;;;;;;4.20;1.03;;;21.80;78.50;;;;;;2016027;29;20366;-84
2022/08/03 00:40:35;;;;;;;6.57;1.80;;;21.80;78.30;;;;;;2012521;29;20053;-84
2022/08/03 00:41:36;;;;;;;4.97;0.90;;;21.80;78.40;;;;;;2019604;29;20108;-84
2022/08/03 00:42:52;;;;;;;4.47;1.17;;;21.80;78.50;;;;;;2004018;29;20469;-84
2022/08/03 00:43:53;;;;;;;6.20;1.38;;;21.80;78.60;;;;;;2005712;29;20067;-84
2022/08/03 00:44:54;;;;;;;5.93;1.40;;;21.80;78.40;;;;;;2010764;29;20312;-85
2022/08/03 00:45:55;;;;;;;1.93;0.83;;;21.80;78.50;;;;;;2019307;29;20474;-84
2022/08/03 00:46:56;;;;;;;4.00;1.15;;;21.80;78.50;;;;;;2012427;29;20029;-84
2022/08/03 00:47:58;;;;;;;3.07;0.97;;;21.80;78.50;;;;;;2004807;29;20186;-84
2022/08/03 00:48:59;;;;;;;3.75;1.20;;;21.80;78.60;;;;;;2012551;29;20037;-84
2022/08/03 00:49:59;;;;;;;6.03;1.33;;;21.80;78.50;;;;;;2011093;29;20037;-84
2022/08/03 00:51:00;;;;;;;8.27;1.27;;;21.80;78.60;;;;;;2011818;29;20517;-84
2022/08/03 00:52:02;;;;;;;3.00;1.05;;;21.70;78.40;;;;;;2012243;29;20037;-84
2022/08/03 00:53:05;;;;;;;4.13;1.05;;;21.80;78.40;;;;;;2011744;29;20033;-84
2022/08/03 00:54:05;;;;;;;2.17;0.82;;;21.80;78.60;;;;;;2012347;29;20038;-84
2022/08/03 00:55:07;;;;;;;10.83;1.60;;;21.80;78.60;;;;;;2010967;29;20032;-85
2022/08/03 00:56:08;;;;;;;3.40;1.25;;;21.80;78.60;;;;;;2012300;29;20076;-85
2022/08/03 00:57:08;;;;;;;2.90;0.80;;;21.80;78.60;;;;;;2006795;29;20126;-84
2022/08/03 00:58:10;;;;;;;3.50;0.77;;;21.80;78.50;;;;;;2012632;29;20533;-84
2022/08/03 00:59:11;;;;;;;7.45;1.30;;;21.80;78.50;;;;;;2019314;29;20552;-84
2022/08/03 01:00:16;;;;;;;4.75;1.23;;;21.80;78.60;;;;;;2012013;29;20036;-84
2022/08/03 01:01:16;;;;;;;10.63;1.17;;;21.70;78.60;;;;;;2004939;29;20120;-84
2022/08/03 01:02:17;;;;;;;3.80;1.10;;;21.70;78.60;;;;;;2012657;29;20233;-84
2022/08/03 01:03:18;;;;;;;6.60;1.23;;;21.70;78.80;;;;;;2004549;29;20038;-84
2022/08/03 01:04:19;;;;;;;8.07;1.30;;;21.70;78.70;;;;;;2012270;29;20093;-84
2022/08/03 01:05:20;;;;;;;5.53;0.70;;;21.70;78.50;;;;;;2015155;29;20053;-84
2022/08/03 01:06:42;;;;;;;7.00;1.10;;;21.70;78.50;;;;;;2011329;29;20452;-84
2022/08/03 01:07:45;;;;;;;5.18;1.35;;;21.70;78.60;;;;;;2007239;29;20029;-84
2022/08/03 01:08:57;;;;;;;4.63;0.93;;;21.70;78.60;;;;;;2008431;29;20048;-84
2022/08/03 01:12:26;;;;;;;7.57;1.30;;;21.70;78.50;;;;;;2015697;29;20017;-83
2022/08/03 01:13:39;;;;;;;9.75;1.23;;;21.70;78.70;;;;;;2019142;29;20275;-84
2022/08/03 01:14:56;;;;;;;6.60;1.88;;;21.70;78.60;;;;;;2005667;29;20380;-84
2022/08/03 01:16:12;;;;;;;7.43;1.65;;;21.70;78.50;;;;;;2002443;29;20172;-84
2022/08/03 01:17:30;;;;;;;4.78;1.48;;;21.70;78.50;;;;;;2013307;29;20033;-84
2022/08/03 01:18:51;;;;;;;3.42;1.30;;;21.70;78.60;;;;;;2008235;29;20038;-84
2022/08/03 01:20:13;;;;;;;6.60;2.03;;;21.70;78.70;;;;;;2006295;29;20316;-84
2022/08/03 01:21:19;;;;;;;4.22;1.02;;;21.70;78.60;;;;;;2014488;29;20021;-83
2022/08/03 01:22:33;;;;;;;4.20;1.20;;;21.70;78.60;;;;;;2018446;29;20036;-84
2022/08/03 01:23:54;;;;;;;8.60;1.65;;;21.70;78.60;;;;;;2011969;29;20048;-84
2022/08/03 01:25:14;;;;;;;8.00;1.55;;;21.70;78.60;;;;;;2017521;29;20182;-84
2022/08/03 01:26:32;;;;;;;5.28;1.10;;;21.70;78.70;;;;;;2006886;29;20030;-84
2022/08/03 01:27:41;;;;;;;3.97;1.30;;;21.70;78.70;;;;;;1999772;29;20039;-84
2022/08/03 01:29:03;;;;;;;2.10;1.30;;;21.70;78.80;;;;;;2006553;29;20448;-84
2022/08/03 01:30:07;;;;;;;3.00;1.17;;;21.70;78.70;;;;;;2019703;29;20256;-84
2022/08/03 01:31:10;;;;;;;3.15;1.13;;;21.70;78.80;;;;;;2012321;29;20369;-84
2022/08/03 01:32:15;;;;;;;4.82;1.23;;;21.70;78.70;;;;;;2016740;29;20029;-84
2022/08/03 01:33:32;;;;;;;4.63;1.00;;;21.70;78.80;;;;;;2004215;29;20048;-84
2022/08/03 01:34:44;;;;;;;4.10;1.15;;;21.70;78.70;;;;;;2011385;29;20752;-84
2022/08/03 01:35:52;;;;;;;3.95;1.23;;;21.70;78.70;;;;;;2007037;29;20038;-84
2022/08/03 01:36:57;;;;;;;6.65;1.25;;;21.70;78.60;;;;;;2012930;29;20269;-83
2022/08/03 01:38:14;;;;;;;3.05;1.05;;;21.70;78.70;;;;;;2012194;29;20032;-84
2022/08/03 01:39:16;;;;;;;4.53;1.10;;;21.70;78.60;;;;;;2008529;29;20033;-83
2022/08/03 01:40:18;;;;;;;;;;;21.70;78.80;;;;;;2012131;29;20276;-83
2022/08/03 01:41:29;;;;;;;4.78;1.33;;;21.70;78.70;;;;;;2016945;29;19908;-83
2022/08/03 01:42:32;;;;;;;3.08;0.90;;;21.70;79.60;;;;;;2004438;29;20042;-84
2022/08/03 01:43:35;;;;;;;2.47;1.05;;;21.70;78.80;;;;;;2001024;29;20037;-84
2022/08/03 01:44:39;;;;;;;3.60;0.80;;;21.70;79.00;;;;;;2007960;29;20289;-84
2022/08/03 01:45:41;;;;;;;3.55;1.10;;;21.70;78.90;;;;;;2003989;29;20026;-84
2022/08/03 01:46:42;;;;;;;;;;;21.60;78.90;;;;;;2011913;29;20025;-84
2022/08/03 01:47:45;;;;;;;4.95;1.13;;;21.60;78.80;;;;;;2006298;29;19976;-84
2022/08/03 01:48:47;;;;;;;6.43;1.05;;;21.60;79.00;;;;;;2012047;29;20084;-84
2022/08/03 01:49:50;;;;;;;2.10;1.15;;;21.70;79.00;;;;;;2011864;29;20349;-84
2022/08/03 01:50:53;;;;;;;11.57;1.63;;;21.70;79.00;;;;;;2009140;29;20038;-84
2022/08/03 01:51:55;;;;;;;3.80;1.77;;;21.60;79.00;;;;;;2004652;29;20513;-84
2022/08/03 01:52:58;;;;;;;4.35;1.33;;;21.60;79.00;;;;;;2007229;29;20045;-83
2022/08/03 01:54:00;;;;;;;5.00;1.27;;;21.60;79.00;;;;;;2004559;29;20349;-84
2022/08/03 01:55:03;;;;;;;2.50;1.13;;;21.60;79.00;;;;;;2004104;29;20018;-84
2022/08/03 01:56:05;;;;;;;6.25;1.88;;;21.60;79.00;;;;;;2004530;29;20030;-84
2022/08/03 01:57:06;;;;;;;;;;;21.60;79.10;;;;;;2009563;29;20261;-84
2022/08/03 01:58:08;;;;;;;5.55;2.20;;;21.60;79.00;;;;;;2011835;29;19937;-84
2022/08/03 01:59:11;;;;;;;5.18;1.98;;;21.60;79.10;;;;;;2011067;29;20043;-84
2022/08/03 02:00:13;;;;;;;6.00;2.22;;;21.60;79.00;;;;;;2014325;29;20126;-84
2022/08/03 02:01:17;;;;;;;4.35;2.45;;;21.60;79.00;;;;;;2004531;29;20280;-83
2022/08/03 02:02:19;;;;;;;4.35;2.40;;;21.60;79.00;;;;;;2012287;29;20025;-84
2022/08/03 02:03:22;;;;;;;7.03;2.97;;;21.60;78.90;;;;;;2012436;29;20289;-84
2022/08/03 02:04:24;;;;;;;7.35;2.60;;;21.60;79.00;;;;;;2019434;29;20040;-84
2022/08/03 02:05:27;;;;;;;5.47;2.80;;;21.60;79.00;;;;;;2007446;29;20646;-83
2022/08/03 02:06:31;;;;;;;4.82;2.60;;;21.60;79.70;;;;;;1996659;29;20037;-84
2022/08/03 02:07:33;;;;;;;6.32;2.53;;;21.60;79.00;;;;;;2018132;29;20040;-84
2022/08/03 02:08:35;;;;;;;5.57;2.42;;;21.60;79.00;;;;;;2003709;29;20067;-83
2022/08/03 02:09:40;;;;;;;4.43;2.10;;;21.60;79.00;;;;;;1999022;29;20403;-84
2022/08/03 02:10:44;;;;;;;3.17;2.10;;;21.70;79.80;;;;;;2009658;29;20029;-83
2022/08/03 02:11:46;;;;;;;5.05;2.15;;;21.60;79.00;;;;;;2004498;29;20269;-84
2022/08/03 02:12:48;;;;;;;;;;;21.60;79.00;;;;;;2003651;29;20289;-83
2022/08/03 02:13:50;;;;;;;8.48;2.08;;;21.60;79.00;;;;;;2022196;29;19975;-83
2022/08/03 02:14:53;;;;;;;3.50;1.50;;;21.60;79.00;;;;;;2011689;29;20038;-84
2022/08/03 02:15:55;;;;;;;5.13;1.67;;;21.60;79.00;;;;;;2011815;29;20048;-84
2022/08/03 02:16:57;;;;;;;5.03;1.33;;;21.60;79.20;;;;;;2019282;29;20393;-84
2022/08/03 02:18:00;;;;;;;3.75;1.15;;;21.60;79.00;;;;;;2013144;29;20104;-84
2022/08/03 02:19:05;;;;;;;4.43;1.20;;;21.60;79.00;;;;;;2014380;29;20076;-83
2022/08/03 02:20:08;;;;;;;2.92;1.42;;;21.60;79.20;;;;;;2012089;29;20093;-84
2022/08/03 02:21:10;;;;;;;4.47;1.40;;;21.60;79.20;;;;;;2004398;29;20261;-84
2022/08/03 02:22:14;;;;;;;7.90;1.50;;;21.60;79.10;;;;;;2013087;29;20040;-84
2022/08/03 02:23:15;;;;;;;8.68;1.75;;;21.60;79.10;;;;;;2010671;29;20326;-84
2022/08/03 02:24:16;;;;;;;6.32;1.33;;;21.60;79.00;;;;;;2007276;29;20273;-84
2022/08/03 02:25:18;;;;;;;4.53;1.37;;;21.60;79.10;;;;;;2004043;29;20065;-84
2022/08/03 02:26:21;;;;;;;3.35;1.38;;;21.60;79.00;;;;;;2018175;29;20119;-84
2022/08/03 02:27:24;;;;;;;3.33;1.17;;;21.60;79.00;;;;;;2017742;29;20036;-84
2022/08/03 02:28:36;;;;;;;4.65;1.20;;;21.60;79.00;;;;;;2011522;29;20064;-84
2022/08/03 02:29:40;;;;;;;6.65;1.52;;;21.60;79.00;;;;;;2017641;29;20034;-84
2022/08/03 02:30:44;;;;;;;4.57;1.85;;;21.60;79.10;;;;;;2018863;29;20488;-84
2022/08/03 02:31:46;;;;;;;3.05;1.33;;;21.60;79.00;;;;;;2011951;29;20033;-84
2022/08/03 02:32:57;;;;;;;3.95;1.40;;;21.60;79.10;;;;;;2015608;29;20542;-84
2022/08/03 02:34:02;;;;;;;3.97;0.85;;;21.50;78.90;;;;;;2020439;29;20037;-84
2022/08/03 02:35:05;;;;;;;3.50;1.10;;;21.60;79.00;;;;;;2019008;29;20021;-84
2022/08/03 02:36:07;;;;;;;5.35;1.52;;;21.60;79.00;;;;;;2019559;29;20029;-84
2022/08/03 02:37:09;;;;;;;;;;;21.50;78.90;;;;;;2011790;29;20354;-83
2022/08/03 02:38:14;;;;;;;5.72;1.55;;;21.50;79.10;;;;;;2010345;29;19958;-83
2022/08/03 02:39:19;;;;;;;2.97;1.13;;;21.50;79.30;;;;;;2007101;29;20037;-83
2022/08/03 02:40:23;;;;;;;4.05;1.38;;;21.50;79.30;;;;;;2008748;29;20030;-83
2022/08/03 02:41:29;;;;;;;4.55;1.65;;;21.50;79.30;;;;;;2017275;29;20029;-83
2022/08/03 02:42:34;;;;;;;2.33;1.40;;;21.50;79.40;;;;;;2011038;29;20468;-83
2022/08/03 02:43:36;;;;;;;4.53;2.15;;;21.50;79.50;;;;;;2003801;29;20541;-83
2022/08/03 02:44:39;;;;;;;1.77;1.50;;;21.50;79.40;;;;;;2007450;29;20032;-84
2022/08/03 02:45:46;;;;;;;8.00;2.08;;;21.50;79.40;;;;;;2003313;29;20708;-83
2022/08/03 02:46:48;;;;;;;4.65;1.80;;;21.50;79.50;;;;;;2004537;29;20280;-84
2022/08/03 02:47:54;;;;;;;5.15;1.88;;;21.50;79.80;;;;;;2011538;29;20260;-84
2022/08/03 02:48:57;;;;;;;7.25;2.00;;;21.40;79.60;;;;;;2017184;29;20097;-84
2022/08/03 02:50:00;;;;;;;2.88;1.58;;;21.40;79.50;;;;;;2004283;29;20017;-84
2022/08/03 02:51:02;;;;;;;7.82;2.03;;;21.40;79.50;;;;;;2011652;29;20025;-84
2022/08/03 02:52:08;;;;;;;4.13;1.80;;;21.40;79.50;;;;;;2012242;29;20029;-83
2022/08/03 02:53:10;;;;;;;3.63;1.85;;;21.40;79.60;;;;;;2003081;29;20273;-83
2022/08/03 02:54:15;;;;;;;3.80;1.85;;;21.40;79.60;;;;;;2011443;29;20275;-84
2022/08/03 02:55:20;;;;;;;3.53;1.73;;;21.40;79.70;;;;;;2003725;29;20033;-84
2022/08/03 02:56:24;;;;;;;2.03;1.45;;;21.40;80.30;;;;;;2011877;29;20061;-84
2022/08/03 02:57:28;;;;;;;3.30;1.67;;;21.40;79.60;;;;;;2013873;29;20271;-84
2022/08/03 02:58:30;;;;;;;6.55;1.48;;;21.40;79.80;;;;;;2011831;29;20272;-84
2022/08/03 02:59:31;;;;;;;6.43;1.60;;;21.40;79.80;;;;;;2010844;29;20056;-83
2022/08/03 03:00:33;;;;;;;2.78;1.38;;;21.40;79.90;;;;;;2011525;29;20069;-83
2022/08/03 03:01:34;;;;;;;4.50;1.50;;;21.40;79.80;;;;;;2014223;29;20077;-84
2022/08/03 03:02:36;;;;;;;5.00;1.50;;;21.40;79.90;;;;;;2018125;29;20097;-84
2022/08/03 03:03:39;;;;;;;2.80;1.48;;;21.40;79.80;;;;;;2011369;29;20117;-84
2022/08/03 03:04:41;;;;;;;3.47;1.45;;;21.40;79.90;;;;;;2011492;29;20356;-84
2022/08/03 03:05:43;;;;;;;4.13;1.67;;;21.40;79.90;;;;;;2018325;29;20025;-83
2022/08/03 03:06:44;;;;;;;3.58;1.30;;;21.40;79.70;;;;;;2019013;29;20040;-83
2022/08/03 03:07:46;;;;;;;2.33;1.10;;;21.40;79.70;;;;;;2002878;29;20281;-84
2022/08/03 03:08:47;;;;;;;2.15;1.42;;;21.40;79.80;;;;;;2011228;29;20098;-84
2022/08/03 03:09:48;;;;;;;4.13;1.30;;;21.40;79.70;;;;;;2018934;29;20033;-84
2022/08/03 03:10:50;;;;;;;3.97;1.35;;;21.40;79.50;;;;;;2003795;29;20065;-84
2022/08/03 03:11:52;;;;;;;6.38;1.23;;;21.40;79.40;;;;;;2005975;29;20076;-84
2022/08/03 03:12:56;;;;;;;2.20;1.30;;;21.40;79.50;;;;;;2023857;29;20039;-84
2022/08/03 03:13:57;;;;;;;3.95;1.25;;;21.40;79.50;;;;;;2006017;29;20046;-84
2022/08/03 03:14:58;;;;;;;3.40;1.15;;;21.40;79.60;;;;;;1996349;29;20449;-84
2022/08/03 03:16:03;;;;;;;3.17;1.03;;;21.40;79.70;;;;;;2018878;29;20068;-84
2022/08/03 03:17:09;;;;;;;3.70;1.45;;;21.40;80.40;;;;;;2026108;29;20024;-84
2022/08/03 03:18:11;;;;;;;5.90;1.48;;;21.40;79.80;;;;;;2010767;29;20026;-84
2022/08/03 03:19:14;;;;;;;6.00;1.40;;;21.40;79.80;;;;;;2003067;29;20069;-84
2022/08/03 03:20:16;;;;;;;8.07;1.48;;;21.40;79.80;;;;;;1998020;29;20274;-84
2022/08/03 03:21:18;;;;;;;4.13;1.23;;;21.40;79.70;;;;;;2003862;29;20038;-84
2022/08/03 03:22:20;;;;;;;6.35;1.60;;;21.40;79.60;;;;;;2003162;29;20030;-84
2022/08/03 03:23:22;;;;;;;;;;;21.40;79.60;;;;;;1996698;29;20343;-84
2022/08/03 03:24:23;;;;;;;6.50;1.30;;;21.40;79.40;;;;;;2003519;29;19912;-84
2022/08/03 03:25:24;;;;;;;1.67;1.00;;;21.40;79.40;;;;;;2004945;29;20045;-84
2022/08/03 03:26:25;;;;;;;3.63;1.30;;;21.50;79.40;;;;;;2001426;29;20121;-82
2022/08/03 03:27:26;;;;;;;2.92;1.60;;;21.50;79.50;;;;;;2014986;29;20041;-83
2022/08/03 03:28:28;;;;;;;2.30;1.25;;;21.50;79.40;;;;;;2018943;29;20037;-83
2022/08/03 03:29:29;;;;;;;1.83;1.00;;;21.50;79.30;;;;;;2017859;29;20033;-82
2022/08/03 03:30:30;;;;;;;3.70;1.20;;;21.40;79.40;;;;;;2011268;29;20029;-82
2022/08/03 03:31:31;;;;;;;2.10;1.15;;;21.40;79.60;;;;;;2011178;29;20029;-82
2022/08/03 03:32:32;;;;;;;5.47;1.50;;;21.40;79.70;;;;;;2007355;29;20044;-82
2022/08/03 03:33:34;;;;;;;4.72;1.25;;;21.40;79.80;;;;;;1998378;29;20026;-82
2022/08/03 03:34:35;;;;;;;;;;;21.40;79.80;;;;;;2003640;29;20034;-82
2022/08/03 03:35:36;;;;;;;4.07;1.13;;;21.40;79.60;;;;;;2014394;29;20008;-83
2022/08/03 03:36:37;;;;;;;5.10;1.40;;;21.40;79.70;;;;;;2018831;29;20029;-82
2022/08/03 03:37:38;;;;;;;1.73;1.10;;;21.40;79.70;;;;;;2008966;29;20471;-82
2022/08/03 03:38:38;;;;;;;2.03;0.97;;;21.40;79.70;;;;;;2012881;29;20040;-82
2022/08/03 03:39:39;;;;;;;4.40;1.50;;;21.40;79.80;;;;;;2007875;29;20075;-82
2022/08/03 03:40:40;;;;;;;5.93;1.00;;;21.40;79.70;;;;;;1998559;29;20027;-82
2022/08/03 03:41:42;;;;;;;5.68;1.17;;;21.40;79.70;;;;;;1997432;29;20121;-82
2022/08/03 03:42:43;;;;;;;1.30;0.80;;;21.40;79.80;;;;;;2012799;29;20065;-82
2022/08/03 03:43:43;;;;;;;5.63;1.60;;;21.40;79.80;;;;;;2012859;29;20025;-82
2022/08/03 03:44:44;;;;;;;2.93;0.93;;;21.40;79.90;;;;;;2018963;29;20371;-82
2022/08/03 03:45:46;;;;;;;5.97;1.20;;;21.40;79.90;;;;;;2012075;29;20128;-82
2022/08/03 03:46:47;;;;;;;;;;;21.40;80.00;;;;;;2005763;29;20034;-82
2022/08/03 03:47:48;;;;;;;4.15;1.00;;;21.30;80.10;;;;;;2003988;29;20313;-82
2022/08/03 03:48:49;;;;;;;7.15;1.33;;;21.40;80.10;;;;;;2005367;29;20513;-82
2022/08/03 03:49:50;;;;;;;4.53;1.10;;;21.40;80.00;;;;;;2020163;29;20037;-82
2022/08/03 03:50:51;;;;;;;4.70;1.20;;;21.40;80.10;;;;;;2020280;29;20029;-82
2022/08/03 03:51:54;;;;;;;4.15;1.00;;;21.40;80.10;;;;;;2012891;29;20025;-82
2022/08/03 03:52:54;;;;;;;4.20;1.17;;;21.40;80.10;;;;;;2003988;29;20206;-82
2022/08/03 03:54:00;;;;;;;2.70;1.10;;;21.30;80.20;;;;;;2012847;29;20269;-82
2022/08/03 03:55:01;;;;;;;3.85;1.40;;;21.30;80.20;;;;;;2021101;29;20029;-82
2022/08/03 03:56:02;;;;;;;3.33;1.03;;;21.30;80.20;;;;;;2020144;29;20282;-82
2022/08/03 03:57:03;;;;;;;4.57;0.95;;;21.40;80.20;;;;;;2012691;29;20053;-83
2022/08/03 03:58:04;;;;;;;3.77;1.10;;;21.30;80.10;;;;;;2012682;29;20025;-83
2022/08/03 03:59:05;;;;;;;5.38;1.10;;;21.30;80.20;;;;;;2019623;29;20044;-82
2022/08/03 04:00:07;;;;;;;2.93;0.87;;;21.30;80.40;;;;;;2018369;29;20484;-82
2022/08/03 04:01:08;;;;;;;2.35;1.05;;;21.30;80.50;;;;;;2020292;29;20025;-82
2022/08/03 04:02:10;;;;;;;4.13;1.20;;;21.30;80.50;;;;;;2012722;29;20070;-82
2022/08/03 04:03:11;;;;;;;2.83;0.90;;;21.30;80.50;;;;;;2000793;29;20045;-83
2022/08/03 04:11:17;;;;;;;3.08;1.00;;;21.30;80.60;;;;;;2012621;29;20037;-83
2022/08/03 04:12:21;;;;;;;3.22;1.02;;;21.30;80.50;;;;;;2012555;29;20269;-83
2022/08/03 04:13:24;;;;;;;3.25;1.08;;;21.30;80.40;;;;;;2008472;29;20365;-82
2022/08/03 04:14:31;;;;;;;7.38;1.40;;;21.30;80.40;;;;;;2004927;29;20603;-82
2022/08/03 04:15:32;;;;;;;2.13;1.10;;;21.30;80.30;;;;;;2012393;29;20280;-82
2022/08/03 04:16:37;;;;;;;5.00;1.50;;;21.40;80.40;;;;;;2020248;29;20268;-82
2022/08/03 04:17:40;;;;;;;3.35;0.82;;;21.30;80.40;;;;;;2013006;29;20483;-82
2022/08/03 04:18:42;;;;;;;1.75;1.10;;;21.40;80.40;;;;;;2012510;29;20751;-83
2022/08/03 04:19:50;;;;;;;3.25;1.00;;;21.30;80.50;;;;;;2004655;29;20782;-82
2022/08/03 04:20:52;;;;;;;4.18;0.93;;;21.30;80.50;;;;;;2012336;29;20034;-83
2022/08/03 04:21:56;;;;;;;2.92;1.25;;;21.30;80.40;;;;;;2015729;29;20340;-83
2022/08/03 04:23:00;;;;;;;3.15;1.45;;;21.40;80.50;;;;;;2019843;29;20712;-83
2022/08/03 04:24:03;;;;;;;7.03;1.30;;;21.30;80.60;;;;;;2020503;29;20302;-83
2022/08/03 04:25:08;;;;;;;4.43;1.23;;;21.30;80.40;;;;;;2020068;29;20260;-83
2022/08/03 04:26:12;;;;;;;2.78;1.40;;;21.30;80.40;;;;;;2011915;29;20320;-82
2022/08/03 04:27:15;;;;;;;4.18;1.40;;;21.30;80.50;;;;;;2007764;29;20037;-82
2022/08/03 04:28:18;;;;;;;3.40;1.30;;;21.30;80.50;;;;;;2005069;29;20065;-82
2022/08/03 04:29:19;;;;;;;2.67;1.17;;;21.30;80.40;;;;;;2005126;29;20282;-83
2022/08/03 04:30:21;;;;;;;2.83;1.30;;;21.30;80.50;;;;;;2015132;29;20279;-82
2022/08/03 04:31:24;;;;;;;3.85;1.50;;;21.30;80.40;;;;;;2020301;29;20033;-82
2022/08/03 04:32:27;;;;;;;1.77;1.27;;;21.30;80.40;;;;;;2005677;29;20065;-82
2022/08/03 04:33:30;;;;;;;4.10;1.10;;;21.30;80.60;;;;;;2006713;29;20065;-82
2022/08/03 04:34:31;;;;;;;2.67;1.30;;;21.30;80.50;;;;;;2012213;29;20021;-82
2022/08/03 04:35:35;;;;;;;5.47;1.90;;;21.40;80.50;;;;;;2023838;29;20252;-82
2022/08/03 04:36:43;;;;;;;2.60;1.50;;;21.30;80.50;;;;;;2020111;29;20116;-82
2022/08/03 04:37:48;;;;;;;4.88;1.50;;;21.30;80.50;;;;;;2004550;29;20503;-82
2022/08/03 04:38:59;;;;;;;2.63;1.40;;;21.30;80.70;;;;;;2003207;29;20034;-82
2022/08/03 04:40:04;;;;;;;5.07;1.15;;;21.30;80.80;;;;;;2012486;29;20026;-82
2022/08/03 04:41:07;;;;;;;2.58;1.33;;;21.30;80.70;;;;;;2011927;29;20029;-82
2022/08/03 04:42:10;;;;;;;3.88;1.45;;;21.30;80.70;;;;;;2012265;29;20034;-82
2022/08/03 04:43:13;;;;;;;4.93;1.27;;;21.30;80.70;;;;;;2004691;29;20407;-82
2022/08/03 04:44:15;;;;;;;2.78;1.42;;;21.30;80.60;;;;;;2004850;29;20281;-82
2022/08/03 04:45:18;;;;;;;7.40;2.00;;;21.30;80.70;;;;;;2004770;29;20053;-82
2022/08/03 04:46:22;;;;;;;3.83;1.48;;;21.30;80.70;;;;;;2000620;29;20037;-82
2022/08/03 04:47:23;;;;;;;3.67;1.52;;;21.30;80.70;;;;;;1995558;29;20316;-83
2022/08/03 04:48:25;;;;;;;5.20;1.63;;;21.30;80.70;;;;;;1989585;29;20361;-83
2022/08/03 04:49:27;;;;;;;0.90;0.63;;;21.30;80.70;;;;;;1998735;29;20128;-82
2022/08/03 04:50:29;;;;;;;3.40;1.20;;;21.30;80.80;;;;;;2002369;29;20109;-82
2022/08/03 04:51:39;;;;;;;3.58;1.30;;;21.30;80.90;;;;;;2013600;29;20041;-82
2022/08/03 04:52:40;;;;;;;2.85;1.40;;;21.30;81.00;;;;;;2008368;29;20502;-82
2022/08/03 04:53:42;;;;;;;5.38;1.58;;;21.30;81.00;;;;;;2004781;29;20041;-83
2022/08/03 04:54:45;;;;;;;5.15;1.42;;;21.30;80.90;;;;;;2012068;29;20049;-83
2022/08/03 04:55:46;;;;;;;3.47;1.33;;;21.30;80.90;;;;;;2004705;29;20268;-83
2022/08/03 04:56:46;;;;;;;2.20;1.10;;;21.30;81.20;;;;;;2004620;29;20362;-83
2022/08/03 04:57:47;;;;;;;3.38;1.30;;;21.30;81.20;;;;;;2009734;29;20037;-83
2022/08/03 04:58:48;;;;;;;4.03;1.30;;;21.20;81.10;;;;;;2004553;29;20038;-83
2022/08/03 04:59:53;;;;;;;2.70;1.10;;;21.30;81.20;;;;;;2003819;29;20029;-82
2022/08/03 05:00:54;;;;;;;3.80;1.45;;;21.20;81.20;;;;;;2004931;29;20029;-82
2022/08/03 05:01:55;;;;;;;3.20;1.20;;;21.20;81.30;;;;;;2012154;29;20301;-82
2022/08/03 05:02:56;;;;;;;4.80;1.10;;;21.30;81.30;;;;;;2019902;29;20116;-83
2022/08/03 05:03:57;;;;;;;2.72;1.30;;;21.20;81.20;;;;;;2012354;29;20069;-83
2022/08/03 05:04:58;;;;;;;2.93;1.17;;;21.20;81.20;;;;;;2012178;29;20021;-83
2022/08/03 05:05:58;;;;;;;3.33;1.20;;;21.30;81.30;;;;;;2011512;29;20045;-82
2022/08/03 05:06:59;;;;;;;1.50;1.00;;;21.30;81.10;;;;;;1997016;29;20281;-82
2022/08/03 05:08:00;;;;;;;4.70;1.00;;;21.20;81.20;;;;;;1999409;29;20061;-82
2022/08/03 05:09:01;;;;;;;6.37;2.90;;;21.20;81.40;;;;;;2004680;29;20490;-83
2022/08/03 05:10:04;;;;;;;5.73;1.30;;;21.20;81.40;;;;;;2008165;29;20040;-83
2022/08/03 05:11:04;;;;;;;1.73;0.80;;;21.20;81.30;;;;;;2014336;29;20272;-83
2022/08/03 05:12:06;;;;;;;1.70;1.00;;;21.20;81.40;;;;;;2018522;29;20308;-83
2022/08/03 05:13:10;;;;;;;2.42;1.10;;;21.20;81.40;;;;;;2009976;29;20033;-83
2022/08/03 05:14:11;;;;;;;1.25;0.88;;;21.20;81.50;;;;;;1999373;29;20034;-83
2022/08/03 05:15:13;;;;;;;1.63;0.70;;;21.20;81.50;;;;;;2004386;29;20583;-83
2022/08/03 05:16:14;;;;;;;1.17;0.90;;;21.20;81.50;;;;;;2019840;29;20033;-82
2022/08/03 05:17:15;;;;;;;3.95;0.80;;;21.20;81.40;;;;;;2027435;29;20024;-82
2022/08/03 05:18:16;;;;;;;2.30;1.20;;;21.20;81.40;;;;;;2020210;29;20041;-82
2022/08/03 05:19:16;;;;;;;0.67;0.50;;;21.20;81.40;;;;;;2019107;29;20037;-83
2022/08/03 05:20:17;;;;;;;4.20;0.73;;;21.20;81.40;;;;;;2012032;29;20029;-83
2022/08/03 05:21:18;;;;;;;1.60;0.70;;;21.20;81.50;;;;;;2004502;29;20071;-83
2022/08/03 05:22:20;;;;;;;1.17;0.57;;;21.20;81.50;;;;;;1999584;29;20098;-83
2022/08/03 05:23:20;;;;;;;2.72;0.75;;;21.20;81.50;;;;;;2000723;29;20050;-83
2022/08/03 05:24:21;;;;;;;0.67;0.60;;;21.20;81.60;;;;;;2004063;29;20550;-82
2022/08/03 05:25:22;;;;;;;1.60;0.63;;;21.20;81.70;;;;;;2004151;29;20464;-82
2022/08/03 05:26:23;;;;;;;2.13;0.67;;;21.20;81.50;;;;;;2011411;29;20062;-83
2022/08/03 05:27:24;;;;;;;2.83;1.00;;;21.20;81.60;;;;;;2008111;29;20728;-83
2022/08/03 05:28:24;;;;;;;2.70;0.70;;;21.30;81.50;;;;;;2011042;29;20724;-83
2022/08/03 05:29:25;;;;;;;2.07;0.60;;;21.30;81.30;;;;;;2003835;29;20048;-83
2022/08/03 05:30:26;;;;;;;2.00;0.80;;;21.30;81.40;;;;;;2004405;29;20038;-83
2022/08/03 05:31:27;;;;;;;1.25;0.77;;;21.30;81.50;;;;;;2011981;29;20033;-82
2022/08/03 05:32:28;;;;;;;3.20;0.77;;;21.30;81.50;;;;;;2011035;29;20029;-82
2022/08/03 05:33:29;;;;;;;3.43;1.00;;;21.20;81.50;;;;;;2019557;29;20452;-82
2022/08/03 05:34:30;;;;;;;1.70;0.70;;;21.20;81.50;;;;;;2012021;29;20144;-82
2022/08/03 05:35:33;;;;;;;1.58;0.63;;;21.20;82.40;;;;;;2011686;29;20123;-82
2022/08/03 05:36:35;;;;;;;2.85;0.65;;;21.20;81.80;;;;;;2012120;29;20045;-82
2022/08/03 05:37:35;;;;;;;2.75;0.70;;;21.20;81.80;;;;;;2011475;29;20336;-82
2022/08/03 05:38:36;;;;;;;1.37;0.80;;;21.20;81.90;;;;;;2004053;29;20136;-82